Time;durP1;ratioP1;P1;durP2;ratioP2;P2;SDS_P1;SDS_P2;PMS_P1;PMS_P2;Temp;Humidity;BMP_temperature;BMP_pressure;BME280_temperature;BME280_humidity;BME280_pressure;Samples;Min_cycle;Max_cycle;Signal;HPM_P1;HPM_P2
2023/10/15 00:00:25;;;;;;;3.10;2.23;;;16.50;88.30;;;;;;4924464;28;20460;-75
2023/10/15 00:02:52;;;;;;;3.37;2.20;;;16.50;88.30;;;;;;4915550;29;20994;-75
2023/10/15 00:05:25;;;;;;;3.10;2.33;;;16.40;88.20;;;;;;4924014;29;20527;-75
2023/10/15 00:07:52;;;;;;;5.10;2.40;;;16.40;88.10;;;;;;4908975;29;20450;-75
2023/10/15 00:10:25;;;;;;;5.10;2.53;;;16.40;88.20;;;;;;4923646;28;20447;-75
2023/10/15 00:12:54;;;;;;;2.80;2.60;;;16.40;88.20;;;;;;4923282;29;20440;-75
2023/10/15 00:15:27;;;;;;;3.47;2.47;;;16.40;88.30;;;;;;4941177;29;20576;-74
2023/10/15 00:17:57;;;;;;;4.00;2.80;;;16.40;88.30;;;;;;4921690;29;20976;-75
2023/10/15 00:20:26;;;;;;;4.53;3.07;;;16.40;88.30;;;;;;4924239;28;21158;-75
2023/10/15 00:22:56;;;;;;;3.17;2.37;;;16.40;88.30;;;;;;4923360;29;20470;-75
2023/10/15 00:25:22;;;;;;;5.47;2.80;;;16.30;88.30;;;;;;4923264;29;20513;-75
2023/10/15 00:27:56;;;;;;;3.80;2.57;;;16.30;88.20;;;;;;4940967;28;20206;-74
2023/10/15 00:30:31;;;;;;;4.43;2.50;;;16.30;88.20;;;;;;4924092;29;20499;-75
2023/10/15 00:33:06;;;;;;;3.60;2.27;;;16.30;88.20;;;;;;4929488;29;20538;-75
2023/10/15 00:35:40;;;;;;;2.93;2.40;;;16.30;88.30;;;;;;4931885;29;20417;-75
2023/10/15 00:38:24;;;;;;;4.23;2.73;;;16.30;88.30;;;;;;4916478;28;20474;-75
2023/10/15 00:41:00;;;;;;;3.17;2.70;;;16.30;88.30;;;;;;4941655;28;20448;-75
2023/10/15 00:43:30;;;;;;;2.87;2.17;;;16.30;88.30;;;;;;4940774;28;20565;-75
2023/10/15 00:46:09;;;;;;;3.13;2.47;;;16.30;88.30;;;;;;4916365;29;20478;-75
2023/10/15 00:48:38;;;;;;;6.30;2.93;;;16.30;88.30;;;;;;4908303;29;20473;-75
2023/10/15 00:51:11;;;;;;;4.00;2.30;;;16.20;88.90;;;;;;4908814;29;20436;-73
2023/10/15 00:53:48;;;;;;;3.43;2.27;;;16.20;88.20;;;;;;4909884;29;20456;-72
2023/10/15 00:56:23;;;;;;;5.00;2.50;;;16.20;88.20;;;;;;4926268;29;20419;-72
2023/10/15 01:01:26;;;;;;;2.97;2.70;;;16.20;88.20;;;;;;4916598;29;20463;-72
2023/10/15 01:03:59;;;;;;;4.90;2.03;;;16.20;88.20;;;;;;4917116;29;21088;-72
2023/10/15 01:06:35;;;;;;;3.50;2.70;;;16.20;88.10;;;;;;4922024;29;20484;-72
2023/10/15 01:09:18;;;;;;;3.10;2.80;;;16.10;88.20;;;;;;4942026;29;20457;-72
2023/10/15 01:11:51;;;;;;;5.57;3.30;;;16.10;88.20;;;;;;4928941;29;20456;-72
2023/10/15 01:14:39;;;;;;;3.53;2.37;;;16.10;88.10;;;;;;4913016;29;20448;-72
2023/10/15 01:17:07;;;;;;;3.23;2.30;;;16.10;88.20;;;;;;4933102;29;20963;-72
2023/10/15 01:19:34;;;;;;;4.03;2.50;;;16.10;88.20;;;;;;4906206;29;20456;-72
2023/10/15 01:22:02;;;;;;;3.00;2.70;;;16.10;88.20;;;;;;4927113;29;20997;-72
2023/10/15 01:24:36;;;;;;;2.63;2.43;;;16.10;88.30;;;;;;4919342;29;20480;-72
2023/10/15 01:29:34;;;;;;;3.03;2.80;;;16.10;88.20;;;;;;4926920;29;20421;-72
2023/10/15 01:32:03;;;;;;;4.13;2.63;;;16.10;88.30;;;;;;4942402;28;20439;-72
2023/10/15 01:34:37;;;;;;;2.67;2.33;;;16.10;88.10;;;;;;4911480;29;20889;-72
2023/10/15 01:37:15;;;;;;;3.33;2.33;;;16.00;88.10;;;;;;4927415;29;20496;-72
2023/10/15 01:39:53;;;;;;;4.13;2.50;;;16.00;88.20;;;;;;4911173;29;21109;-72
2023/10/15 01:50:23;;;;;;;3.00;2.50;;;16.00;88.40;;;;;;4908761;29;20461;-72
2023/10/15 01:53:01;;;;;;;5.23;3.30;;;16.00;88.40;;;;;;4908546;29;20444;-72
2023/10/15 01:55:30;;;;;;;3.53;2.80;;;16.00;88.30;;;;;;4944139;29;20440;-72
2023/10/15 01:58:00;;;;;;;2.00;1.80;;;15.90;88.20;;;;;;4915982;29;20462;-72
2023/10/15 02:03:07;;;;;;;4.10;2.53;;;15.90;89.10;;;;;;4938690;29;20570;-72
2023/10/15 02:05:42;;;;;;;4.50;2.30;;;15.90;88.40;;;;;;4905718;29;20431;-72
2023/10/15 02:08:23;;;;;;;3.27;2.50;;;15.90;88.30;;;;;;4934515;29;20442;-72
2023/10/15 02:10:49;;;;;;;2.67;2.47;;;15.90;89.10;;;;;;4917891;29;20946;-72
2023/10/15 02:13:17;;;;;;;3.63;2.37;;;15.90;88.40;;;;;;4919253;29;20981;-72
2023/10/15 02:15:44;;;;;;;8.63;2.20;;;15.90;88.50;;;;;;4939513;29;20471;-72
2023/10/15 02:18:14;;;;;;;3.80;2.60;;;15.90;88.50;;;;;;4911315;29;20511;-72
2023/10/15 02:23:20;;;;;;;5.57;2.73;;;15.90;88.80;;;;;;4930565;29;20483;-72
2023/10/15 02:25:47;;;;;;;3.97;2.63;;;15.90;88.80;;;;;;4907609;29;20431;-72
2023/10/15 02:28:20;;;;;;;5.30;2.50;;;15.80;88.70;;;;;;4938480;29;20890;-72
2023/10/15 02:30:48;;;;;;;6.33;3.03;;;15.80;88.80;;;;;;4899793;29;20525;-72
2023/10/15 02:33:17;;;;;;;3.10;2.30;;;15.80;88.80;;;;;;4944147;29;20428;-72
2023/10/15 02:35:47;;;;;;;3.70;2.60;;;15.80;88.80;;;;;;4895280;29;20434;-72
2023/10/15 02:38:14;;;;;;;4.57;2.30;;;15.80;88.80;;;;;;4922832;29;20444;-72
2023/10/15 02:43:27;;;;;;;3.10;2.50;;;15.80;88.90;;;;;;4928531;29;20560;-72
2023/10/15 02:45:53;;;;;;;3.43;3.13;;;15.80;88.90;;;;;;4907952;29;20829;-72
2023/10/15 02:48:20;;;;;;;9.03;3.20;;;15.80;89.00;;;;;;4927791;29;20454;-72
2023/10/15 02:50:58;;;;;;;4.00;2.90;;;15.80;89.00;;;;;;4925630;29;21068;-72
2023/10/15 02:53:35;;;;;;;3.83;2.90;;;15.80;89.00;;;;;;4934188;29;20473;-72
2023/10/15 02:56:15;;;;;;;3.93;3.30;;;15.80;89.10;;;;;;4941462;29;20429;-72
2023/10/15 02:58:44;;;;;;;3.60;3.27;;;15.80;89.10;;;;;;4879379;29;21060;-72
2023/10/15 03:01:20;;;;;;;3.37;2.87;;;15.80;89.20;;;;;;4898199;29;21187;-72
2023/10/15 03:03:49;;;;;;;5.57;3.40;;;15.80;89.20;;;;;;4935700;29;21087;-70
2023/10/15 03:06:24;;;;;;;4.10;2.60;;;15.70;89.20;;;;;;4927066;29;20568;-72
2023/10/15 03:08:52;;;;;;;3.50;2.57;;;15.70;89.30;;;;;;4918644;29;20552;-71
2023/10/15 03:11:20;;;;;;;3.87;2.77;;;15.70;89.40;;;;;;4926753;29;20428;-73
2023/10/15 03:13:57;;;;;;;3.30;2.70;;;15.70;89.50;;;;;;4910107;29;20490;-73
2023/10/15 03:16:31;;;;;;;3.03;2.70;;;15.70;89.60;;;;;;4926503;29;20856;-73
2023/10/15 03:19:04;;;;;;;4.00;2.90;;;15.70;89.50;;;;;;4940409;29;21000;-75
2023/10/15 03:21:37;;;;;;;4.27;2.67;;;15.70;89.50;;;;;;4917438;29;21087;-74
2023/10/15 03:24:04;;;;;;;3.03;2.80;;;15.70;89.60;;;;;;4913872;29;20474;-73
2023/10/15 03:26:34;;;;;;;4.20;3.20;;;15.70;89.60;;;;;;4889736;29;20638;-73
2023/10/15 03:29:13;;;;;;;4.17;2.90;;;15.70;89.60;;;;;;4921994;29;21026;-73
2023/10/15 03:31:47;;;;;;;4.40;3.23;;;15.70;89.70;;;;;;4925703;29;20806;-73
2023/10/15 03:34:22;;;;;;;3.97;3.33;;;15.70;89.70;;;;;;4917092;29;20444;-74
2023/10/15 03:37:00;;;;;;;3.53;2.93;;;15.70;89.70;;;;;;4934410;29;20425;-74
2023/10/15 03:44:45;;;;;;;5.17;3.10;;;15.70;89.70;;;;;;4923684;29;20439;-74
2023/10/15 03:47:15;;;;;;;3.57;3.10;;;15.60;89.80;;;;;;4915815;29;20470;-74
2023/10/15 03:49:46;;;;;;;4.67;2.97;;;15.60;89.70;;;;;;4940036;29;21117;-73
2023/10/15 03:52:22;;;;;;;4.80;2.80;;;15.60;89.70;;;;;;4920267;29;20485;-74
2023/10/15 03:54:49;;;;;;;5.37;3.20;;;15.60;89.90;;;;;;4920378;29;20886;-73
2023/10/15 03:57:27;;;;;;;3.00;2.60;;;15.60;89.90;;;;;;4940565;29;20533;-74
2023/10/15 03:59:54;;;;;;;3.03;2.83;;;15.60;89.90;;;;;;4940684;29;20867;-74
2023/10/15 04:02:23;;;;;;;5.80;2.90;;;15.60;90.00;;;;;;4933535;29;20694;-74
2023/10/15 04:05:08;;;;;;;6.63;3.90;;;15.60;90.00;;;;;;4925017;29;20801;-74
2023/10/15 04:07:48;;;;;;;4.00;3.17;;;15.60;90.00;;;;;;4923894;29;20499;-74
2023/10/15 04:10:23;;;;;;;3.17;2.87;;;15.60;90.10;;;;;;4940152;29;20423;-73
2023/10/15 04:12:53;;;;;;;5.40;3.07;;;15.60;90.10;;;;;;4914746;29;20529;-73
2023/10/15 04:15:21;;;;;;;5.50;3.00;;;15.60;90.10;;;;;;4918652;29;20467;-74
2023/10/15 04:17:48;;;;;;;2.63;2.43;;;15.60;90.10;;;;;;4922652;29;20490;-74
2023/10/15 04:20:15;;;;;;;3.57;2.70;;;15.60;90.10;;;;;;4929718;29;20599;-74
2023/10/15 04:22:51;;;;;;;3.63;2.90;;;15.50;90.00;;;;;;4915832;29;20482;-74
2023/10/15 04:25:25;;;;;;;3.20;2.33;;;15.50;90.10;;;;;;4934548;29;20680;-74
2023/10/15 04:27:52;;;;;;;3.00;2.80;;;15.50;90.10;;;;;;4916752;28;20451;-74
2023/10/15 04:30:20;;;;;;;4.40;2.90;;;15.50;90.10;;;;;;4911884;29;20438;-74
2023/10/15 04:32:51;;;;;;;3.70;3.00;;;15.50;90.20;;;;;;4920786;29;20429;-73
2023/10/15 04:35:25;;;;;;;4.27;2.73;;;15.50;90.10;;;;;;4921140;29;20414;-73
2023/10/15 04:37:52;;;;;;;4.70;3.20;;;15.50;90.10;;;;;;4921874;29;20474;-73
2023/10/15 04:40:23;;;;;;;4.53;3.03;;;15.50;90.20;;;;;;4933617;29;20942;-73
2023/10/15 04:42:51;;;;;;;3.67;2.93;;;15.50;90.20;;;;;;4925132;29;21053;-73
2023/10/15 04:48:15;;;;;;;3.50;2.70;;;15.50;90.20;;;;;;4939274;29;20607;-73
2023/10/15 04:50:45;;;;;;;2.53;2.33;;;15.40;90.20;;;;;;4923196;29;21036;-73
2023/10/15 04:55:56;;;;;;;2.80;2.50;;;15.40;90.20;;;;;;4941489;29;20457;-75
2023/10/15 04:58:27;;;;;;;3.37;2.13;;;15.40;90.30;;;;;;4936801;29;20456;-74
2023/10/15 05:00:54;;;;;;;3.10;2.43;;;15.40;90.30;;;;;;4942414;29;20449;-74
2023/10/15 05:03:21;;;;;;;3.47;2.20;;;15.40;90.30;;;;;;4904384;29;20472;-75
2023/10/15 05:05:48;;;;;;;3.60;2.33;;;15.40;90.30;;;;;;4944741;29;21190;-75
2023/10/15 05:08:24;;;;;;;2.77;2.40;;;15.40;90.40;;;;;;4932729;29;21341;-75
2023/10/15 05:10:50;;;;;;;3.87;2.70;;;15.40;90.30;;;;;;4924738;29;20578;-74
2023/10/15 05:13:19;;;;;;;3.77;2.00;;;15.40;90.40;;;;;;4922557;29;20886;-75
2023/10/15 05:15:49;;;;;;;2.60;2.40;;;15.40;90.40;;;;;;4908376;29;20496;-75
2023/10/15 05:18:18;;;;;;;2.53;2.27;;;15.40;90.40;;;;;;4927424;29;20707;-74
2023/10/15 05:20:48;;;;;;;4.03;2.27;;;15.40;90.40;;;;;;4926173;29;20488;-75
2023/10/15 05:23:17;;;;;;;3.80;2.13;;;15.30;90.30;;;;;;4928194;29;20641;-74
2023/10/15 05:25:45;;;;;;;2.60;2.00;;;15.30;90.30;;;;;;4905567;29;20568;-75
2023/10/15 05:28:14;;;;;;;2.53;2.10;;;15.30;90.30;;;;;;4915434;29;20974;-75
2023/10/15 05:30:41;;;;;;;4.20;2.37;;;15.30;90.40;;;;;;4902196;29;20452;-75
2023/10/15 05:33:26;;;;;;;2.10;1.90;;;15.30;90.40;;;;;;4902608;29;20544;-75
2023/10/15 05:35:52;;;;;;;2.10;1.90;;;15.30;90.40;;;;;;4923765;29;21131;-74
2023/10/15 05:38:20;;;;;;;2.13;2.03;;;15.30;90.40;;;;;;4943644;28;20678;-75
2023/10/15 05:40:48;;;;;;;2.23;1.90;;;15.30;90.40;;;;;;4926149;29;20440;-74
2023/10/15 05:43:16;;;;;;;3.83;1.90;;;15.30;90.40;;;;;;4921445;29;20514;-75
2023/10/15 05:45:46;;;;;;;2.10;2.00;;;15.30;90.50;;;;;;4940915;28;20440;-75
2023/10/15 05:48:12;;;;;;;2.70;1.90;;;15.30;90.50;;;;;;4935122;29;20445;-75
2023/10/15 05:50:39;;;;;;;2.33;2.13;;;15.30;90.50;;;;;;4943358;28;20446;-75
2023/10/15 05:53:08;;;;;;;1.90;1.80;;;15.30;90.50;;;;;;4909973;29;20542;-75
2023/10/15 05:55:37;;;;;;;2.27;2.13;;;15.30;90.50;;;;;;4909490;29;20432;-75
2023/10/15 05:58:06;;;;;;;2.23;1.90;;;15.30;90.40;;;;;;4910034;29;20464;-75
2023/10/15 06:00:40;;;;;;;2.10;2.00;;;15.30;90.50;;;;;;4925508;29;20431;-75
2023/10/15 06:03:07;;;;;;;2.53;1.93;;;15.30;90.50;;;;;;4925908;29;20520;-75
2023/10/15 06:05:35;;;;;;;1.77;1.67;;;15.20;90.40;;;;;;4931047;29;20432;-75
2023/10/15 06:08:04;;;;;;;3.63;1.87;;;15.20;90.40;;;;;;4892943;29;20751;-75
2023/10/15 06:10:32;;;;;;;2.03;1.57;;;15.20;90.50;;;;;;4903217;29;20445;-75
2023/10/15 06:13:06;;;;;;;1.60;1.50;;;15.20;90.50;;;;;;4925059;29;21225;-74
2023/10/15 06:15:33;;;;;;;1.73;1.60;;;15.20;90.50;;;;;;4934670;29;20466;-75
2023/10/15 06:17:59;;;;;;;2.27;1.83;;;15.20;90.50;;;;;;4908860;28;20521;-74
2023/10/15 06:20:25;;;;;;;1.80;1.60;;;15.20;90.50;;;;;;4924852;29;20474;-74
2023/10/15 06:22:55;;;;;;;1.63;1.53;;;15.20;90.50;;;;;;4924384;29;21018;-75
2023/10/15 06:25:24;;;;;;;1.63;1.53;;;15.20;90.50;;;;;;4924069;28;20449;-75
2023/10/15 06:27:50;;;;;;;4.63;1.80;;;15.20;90.50;;;;;;4924484;29;20458;-75
2023/10/15 06:30:16;;;;;;;1.60;1.50;;;15.20;90.50;;;;;;4940915;28;20428;-75
2023/10/15 06:32:49;;;;;;;1.90;1.80;;;15.20;90.50;;;;;;4923405;29;20558;-75
2023/10/15 06:35:20;;;;;;;2.77;1.80;;;15.10;90.50;;;;;;4916469;29;20581;-75
2023/10/15 06:37:46;;;;;;;1.40;1.30;;;15.20;90.50;;;;;;4908375;29;21189;-74
2023/10/15 06:40:15;;;;;;;1.57;1.40;;;15.10;90.50;;;;;;4916678;29;20478;-74
2023/10/15 06:42:42;;;;;;;1.70;1.60;;;15.20;90.60;;;;;;4941782;29;20800;-74
2023/10/15 06:45:09;;;;;;;2.40;1.40;;;15.10;90.50;;;;;;4925031;29;21014;-74
2023/10/15 06:47:38;;;;;;;1.70;1.60;;;15.10;90.50;;;;;;4941789;29;20469;-74
2023/10/15 06:50:08;;;;;;;1.70;1.60;;;15.10;90.60;;;;;;4941177;28;20915;-74
2023/10/15 06:52:38;;;;;;;2.50;1.80;;;15.10;90.50;;;;;;4920688;29;20447;-74
2023/10/15 06:55:13;;;;;;;2.37;2.17;;;15.10;90.60;;;;;;4899908;29;20437;-74
2023/10/15 06:57:41;;;;;;;1.70;1.60;;;15.10;90.60;;;;;;4941357;29;20460;-74
2023/10/15 07:00:10;;;;;;;2.30;1.90;;;15.10;90.60;;;;;;4916141;29;20453;-74
2023/10/15 07:02:37;;;;;;;2.40;2.20;;;15.10;90.70;;;;;;4915800;29;20472;-75
2023/10/15 07:05:05;;;;;;;2.20;1.80;;;15.10;90.70;;;;;;4932800;28;20432;-74
2023/10/15 07:07:35;;;;;;;2.73;1.80;;;15.10;90.70;;;;;;4941257;28;20443;-74
2023/10/15 07:10:08;;;;;;;2.00;1.80;;;15.10;90.70;;;;;;4941220;28;20419;-74
2023/10/15 07:12:37;;;;;;;1.87;1.67;;;15.10;90.70;;;;;;4923274;29;20502;-74
2023/10/15 07:15:05;;;;;;;1.80;1.70;;;15.10;90.70;;;;;;4921976;29;20440;-74
2023/10/15 07:17:32;;;;;;;1.90;1.80;;;15.10;90.70;;;;;;4941020;29;20656;-74
2023/10/15 07:19:58;;;;;;;1.90;1.70;;;15.10;90.70;;;;;;4930578;29;20435;-74
2023/10/15 07:22:27;;;;;;;1.63;1.53;;;15.10;90.70;;;;;;4905171;29;20530;-74
2023/10/15 07:24:55;;;;;;;2.03;1.87;;;15.10;90.70;;;;;;4938493;29;20451;-74
2023/10/15 07:27:24;;;;;;;1.77;1.67;;;15.10;90.70;;;;;;4892034;29;20214;-74
2023/10/15 07:29:50;;;;;;;1.60;1.50;;;15.10;90.80;;;;;;4940487;29;20987;-74
2023/10/15 07:32:19;;;;;;;1.93;1.60;;;15.10;91.10;;;;;;4939187;29;20831;-75
2023/10/15 07:34:45;;;;;;;1.70;1.53;;;15.10;90.80;;;;;;4921635;29;20443;-74
2023/10/15 07:37:14;;;;;;;2.50;1.60;;;15.10;90.80;;;;;;4918240;29;20556;-74
2023/10/15 07:39:39;;;;;;;1.93;1.70;;;15.10;90.80;;;;;;4915663;29;20441;-74
2023/10/15 07:42:06;;;;;;;2.50;1.60;;;15.00;90.80;;;;;;4935833;28;20552;-74
2023/10/15 07:44:35;;;;;;;2.50;2.20;;;15.00;90.80;;;;;;4915517;29;20476;-74
2023/10/15 07:47:04;;;;;;;1.70;1.60;;;15.00;90.80;;;;;;4930691;29;20474;-74
2023/10/15 07:49:31;;;;;;;2.33;1.83;;;15.00;90.80;;;;;;4921506;29;20482;-74
2023/10/15 07:52:00;;;;;;;2.63;1.50;;;15.00;90.80;;;;;;4937510;29;20428;-74
2023/10/15 07:54:26;;;;;;;2.33;1.70;;;15.00;90.80;;;;;;4914175;29;20501;-74
2023/10/15 07:56:58;;;;;;;1.67;1.57;;;15.00;90.80;;;;;;4918740;29;23140;-73
2023/10/15 07:59:27;;;;;;;1.87;1.70;;;15.00;90.80;;;;;;4914360;29;20978;-74
2023/10/15 08:01:54;;;;;;;1.70;1.60;;;15.00;90.80;;;;;;4934868;29;20834;-74
2023/10/15 08:04:20;;;;;;;2.30;1.77;;;15.00;90.80;;;;;;4936017;28;20476;-74
2023/10/15 08:06:48;;;;;;;2.27;2.10;;;15.00;90.80;;;;;;4938278;29;20984;-74
2023/10/15 08:09:14;;;;;;;1.80;1.70;;;15.00;90.90;;;;;;4936095;29;20522;-74
2023/10/15 08:11:41;;;;;;;2.97;1.80;;;15.00;90.90;;;;;;4904575;29;21216;-74
2023/10/15 08:14:11;;;;;;;2.20;2.00;;;14.90;90.80;;;;;;4916628;29;20441;-74
2023/10/15 08:16:37;;;;;;;1.87;1.67;;;15.00;90.80;;;;;;4938482;29;20475;-74
2023/10/15 08:19:05;;;;;;;1.70;1.50;;;15.00;90.80;;;;;;4933329;29;20430;-74
2023/10/15 08:21:32;;;;;;;1.60;1.50;;;15.00;90.80;;;;;;4929302;29;20541;-76
2023/10/15 08:23:57;;;;;;;1.70;1.60;;;15.00;90.80;;;;;;4927085;29;20568;-76
2023/10/15 08:26:23;;;;;;;2.17;2.07;;;15.00;90.80;;;;;;4908899;29;20865;-76
2023/10/15 08:28:52;;;;;;;2.20;1.70;;;15.00;90.80;;;;;;4942221;29;20984;-75
2023/10/15 08:31:18;;;;;;;1.70;1.60;;;15.00;90.80;;;;;;4911281;29;20440;-76
2023/10/15 08:33:47;;;;;;;2.97;1.57;;;15.00;90.80;;;;;;4935294;29;20450;-75
2023/10/15 08:36:17;;;;;;;2.43;1.53;;;15.00;90.90;;;;;;4945837;29;20479;-76
2023/10/15 08:38:44;;;;;;;1.83;1.60;;;15.00;90.90;;;;;;4919798;29;20577;-76
2023/10/15 08:41:14;;;;;;;4.30;1.40;;;15.00;90.90;;;;;;4911515;29;20451;-76
2023/10/15 08:43:44;;;;;;;2.43;1.50;;;15.00;90.90;;;;;;4911233;29;20514;-76
2023/10/15 08:46:14;;;;;;;3.00;1.97;;;15.00;90.90;;;;;;4941884;29;20610;-76
2023/10/15 08:48:45;;;;;;;1.90;1.80;;;15.00;90.90;;;;;;4895708;29;20600;-76
2023/10/15 08:51:13;;;;;;;2.40;1.97;;;15.00;90.90;;;;;;4894473;29;20443;-76
2023/10/15 08:53:44;;;;;;;1.50;1.40;;;15.00;91.30;;;;;;4910712;29;20432;-71
2023/10/15 08:56:10;;;;;;;1.47;1.37;;;15.00;90.90;;;;;;4927420;29;20449;-75
2023/10/15 08:58:43;;;;;;;1.70;1.60;;;14.90;90.90;;;;;;4910716;29;21254;-73
2023/10/15 09:01:13;;;;;;;2.13;1.50;;;15.00;91.00;;;;;;4946430;29;20997;-77
2023/10/15 09:03:40;;;;;;;2.40;1.40;;;15.00;90.90;;;;;;4927892;29;20498;-77
2023/10/15 09:06:08;;;;;;;2.50;1.67;;;15.00;90.90;;;;;;4936029;29;20423;-78
2023/10/15 09:08:41;;;;;;;2.27;2.07;;;15.00;91.00;;;;;;4914374;29;20452;-77
2023/10/15 09:11:12;;;;;;;2.23;1.50;;;15.00;90.90;;;;;;4940810;29;20455;-77
2023/10/15 09:13:40;;;;;;;2.13;1.50;;;15.00;90.90;;;;;;4892661;29;20465;-77
2023/10/15 09:16:08;;;;;;;2.73;1.77;;;15.00;90.90;;;;;;4902284;29;20511;-78
2023/10/15 09:18:37;;;;;;;2.67;2.47;;;15.00;90.90;;;;;;4900649;29;20471;-79
2023/10/15 09:21:04;;;;;;;2.50;2.20;;;14.90;90.80;;;;;;4912756;29;21068;-79
2023/10/15 09:23:35;;;;;;;2.00;1.80;;;14.90;90.90;;;;;;4939449;29;20496;-79
2023/10/15 09:26:02;;;;;;;3.27;2.30;;;14.90;90.90;;;;;;4928773;29;20432;-75
2023/10/15 09:28:30;;;;;;;2.50;2.30;;;14.90;90.80;;;;;;4910956;29;20457;-77
2023/10/15 09:31:11;;;;;;;4.43;2.57;;;15.00;90.90;;;;;;4941687;28;21039;-75
2023/10/15 09:33:40;;;;;;;3.30;3.00;;;14.90;90.90;;;;;;4921174;29;21184;-76
2023/10/15 09:36:15;;;;;;;4.43;2.77;;;14.90;90.80;;;;;;4890820;29;20457;-74
2023/10/15 09:38:45;;;;;;;3.40;2.73;;;15.00;90.90;;;;;;4931467;29;20579;-75
2023/10/15 09:41:12;;;;;;;2.50;2.30;;;14.90;90.80;;;;;;4902662;29;20521;-75
2023/10/15 09:43:40;;;;;;;2.93;2.47;;;15.00;90.90;;;;;;4925109;29;20475;-74
2023/10/15 09:46:12;;;;;;;3.50;2.50;;;15.00;90.80;;;;;;4913744;29;20976;-75
2023/10/15 09:48:42;;;;;;;3.03;2.27;;;15.00;90.90;;;;;;4934444;29;20533;-75
2023/10/15 09:51:11;;;;;;;2.60;2.17;;;14.90;90.80;;;;;;4922754;29;20480;-76
2023/10/15 09:53:43;;;;;;;2.53;2.07;;;14.90;90.80;;;;;;4906820;29;20426;-75
2023/10/15 09:56:12;;;;;;;2.37;1.90;;;15.00;90.80;;;;;;4935030;29;20454;-75
2023/10/15 09:58:40;;;;;;;2.33;2.13;;;15.00;90.80;;;;;;4925048;29;20482;-75
2023/10/15 10:01:26;;;;;;;2.37;2.10;;;14.90;90.80;;;;;;4925327;29;21006;-76
2023/10/15 10:04:18;;;;;;;3.20;1.80;;;15.00;90.80;;;;;;4934399;29;21088;-75
2023/10/15 10:07:05;;;;;;;2.83;1.73;;;15.00;90.80;;;;;;4929531;29;20509;-75
2023/10/15 10:09:59;;;;;;;3.17;2.20;;;15.00;90.80;;;;;;4952023;28;20421;-76
2023/10/15 10:13:05;;;;;;;1.80;1.70;;;14.90;90.80;;;;;;4935242;29;21149;-74
2023/10/15 10:15:47;;;;;;;2.10;1.90;;;15.00;90.90;;;;;;4869913;29;20448;-74
2023/10/15 10:18:16;;;;;;;4.40;1.97;;;14.90;90.80;;;;;;4868117;29;20451;-76
2023/10/15 10:20:48;;;;;;;3.23;2.00;;;14.90;90.80;;;;;;4891146;29;20421;-75
2023/10/15 10:23:17;;;;;;;2.60;1.83;;;15.00;90.90;;;;;;4922498;29;21240;-74
2023/10/15 10:25:48;;;;;;;2.17;1.97;;;15.00;90.90;;;;;;4898484;29;20508;-76
2023/10/15 10:28:15;;;;;;;2.47;2.27;;;14.90;90.80;;;;;;4901667;29;20441;-75
2023/10/15 10:30:55;;;;;;;2.37;2.17;;;15.00;90.80;;;;;;4903298;29;20499;-74
2023/10/15 10:33:54;;;;;;;2.20;1.50;;;15.00;90.80;;;;;;4900983;29;20423;-77
2023/10/15 10:36:28;;;;;;;4.40;2.20;;;15.00;90.80;;;;;;4914554;29;20936;-77
2023/10/15 10:38:59;;;;;;;2.60;2.40;;;15.00;90.90;;;;;;4895428;29;20456;-76
2023/10/15 10:41:38;;;;;;;2.10;1.67;;;15.00;90.90;;;;;;4898409;29;21153;-73
2023/10/15 10:44:12;;;;;;;1.77;1.67;;;14.90;90.80;;;;;;4922404;29;21242;-74
2023/10/15 10:46:42;;;;;;;3.03;1.73;;;15.00;90.90;;;;;;4883860;29;20444;-74
2023/10/15 10:49:16;;;;;;;3.17;2.30;;;15.00;90.90;;;;;;4896349;29;20624;-74
2023/10/15 10:52:04;;;;;;;2.13;1.70;;;15.00;90.90;;;;;;4909750;29;20493;-75
2023/10/15 10:54:31;;;;;;;2.10;1.70;;;15.00;90.90;;;;;;4884277;29;20893;-75
2023/10/15 10:57:00;;;;;;;1.33;1.23;;;15.00;90.90;;;;;;4913121;29;20937;-75
2023/10/15 10:59:30;;;;;;;2.23;1.60;;;15.00;90.90;;;;;;4913807;29;20437;-75
2023/10/15 11:01:59;;;;;;;1.83;1.63;;;15.00;91.20;;;;;;4912879;29;20441;-75
2023/10/15 11:04:30;;;;;;;5.63;2.60;;;15.00;90.80;;;;;;4904664;29;20940;-74
2023/10/15 11:06:58;;;;;;;2.33;1.90;;;15.00;90.80;;;;;;4881857;29;20472;-75
2023/10/15 11:09:25;;;;;;;4.80;1.60;;;15.00;90.80;;;;;;4918369;29;20432;-75
2023/10/15 11:11:52;;;;;;;2.13;1.73;;;15.00;90.80;;;;;;4912403;29;20420;-75
2023/10/15 11:14:25;;;;;;;2.93;1.83;;;15.00;90.80;;;;;;4914569;29;20546;-73
2023/10/15 11:16:55;;;;;;;2.33;2.00;;;15.00;90.80;;;;;;4881717;29;20516;-74
2023/10/15 11:19:23;;;;;;;2.00;1.80;;;15.00;90.70;;;;;;4915178;29;20427;-74
2023/10/15 11:21:53;;;;;;;1.93;1.83;;;15.00;90.70;;;;;;4937834;29;20515;-74
2023/10/15 11:24:23;;;;;;;2.13;1.93;;;15.00;90.70;;;;;;4928436;29;20527;-73
2023/10/15 11:26:50;;;;;;;1.87;1.77;;;15.00;90.70;;;;;;4905334;29;20821;-73
2023/10/15 11:29:21;;;;;;;2.50;1.93;;;15.10;90.60;;;;;;4922312;29;20424;-74
2023/10/15 11:31:58;;;;;;;1.83;1.40;;;15.00;90.60;;;;;;4916603;29;21014;-73
2023/10/15 11:34:28;;;;;;;2.10;1.60;;;15.10;90.70;;;;;;4941529;28;20546;-74
2023/10/15 11:36:56;;;;;;;2.27;2.07;;;15.00;90.60;;;;;;4924034;28;20538;-74
2023/10/15 11:39:25;;;;;;;1.60;1.50;;;15.10;90.50;;;;;;4939085;28;20914;-74
2023/10/15 11:41:56;;;;;;;3.63;1.73;;;15.10;90.50;;;;;;4923865;29;20466;-74
2023/10/15 11:44:30;;;;;;;2.33;1.80;;;15.10;90.50;;;;;;4905543;29;20514;-74
2023/10/15 11:47:08;;;;;;;2.37;2.17;;;15.10;90.50;;;;;;4939161;29;20532;-73
2023/10/15 11:49:38;;;;;;;1.57;1.47;;;15.10;90.40;;;;;;4922038;29;20493;-74
2023/10/15 11:52:05;;;;;;;1.60;1.50;;;15.10;90.50;;;;;;4931717;28;20451;-73
2023/10/15 11:54:35;;;;;;;1.93;1.73;;;15.10;90.50;;;;;;4914089;29;20444;-73
2023/10/15 11:57:04;;;;;;;1.90;1.47;;;15.00;90.50;;;;;;4907438;28;20536;-73
2023/10/15 11:59:31;;;;;;;3.00;1.63;;;15.10;90.50;;;;;;4934184;28;20457;-73
2023/10/15 12:02:01;;;;;;;2.33;1.60;;;15.10;90.50;;;;;;4921665;29;20472;-73
2023/10/15 12:04:29;;;;;;;2.10;1.70;;;15.10;90.50;;;;;;4942261;29;20502;-75
2023/10/15 12:06:58;;;;;;;1.93;1.83;;;15.10;90.40;;;;;;4926996;29;20857;-77
2023/10/15 12:09:31;;;;;;;2.60;1.90;;;15.10;90.40;;;;;;4927065;29;20428;-74
2023/10/15 12:11:59;;;;;;;2.07;1.87;;;15.10;90.40;;;;;;4911347;29;20426;-75
2023/10/15 12:14:27;;;;;;;2.17;1.70;;;15.10;90.40;;;;;;4924959;29;20466;-73
2023/10/15 12:16:53;;;;;;;3.17;1.40;;;15.10;90.40;;;;;;4925593;28;20437;-75
2023/10/15 12:19:22;;;;;;;1.70;1.60;;;15.10;90.40;;;;;;4910309;29;20537;-74
2023/10/15 12:21:50;;;;;;;2.10;1.47;;;15.10;90.40;;;;;;4925483;29;20451;-75
2023/10/15 12:24:17;;;;;;;1.73;1.50;;;15.10;90.30;;;;;;4934740;29;20468;-75
2023/10/15 12:26:44;;;;;;;4.13;1.50;;;15.10;90.30;;;;;;4927654;29;20873;-75
2023/10/15 12:29:13;;;;;;;1.97;1.60;;;15.10;90.30;;;;;;4921621;29;21233;-75
2023/10/15 12:31:43;;;;;;;1.73;1.57;;;15.10;90.30;;;;;;4903616;29;21038;-74
2023/10/15 12:34:11;;;;;;;2.23;2.03;;;15.10;90.20;;;;;;4905884;29;20443;-75
2023/10/15 12:36:41;;;;;;;1.80;1.70;;;15.10;90.20;;;;;;4915620;29;21062;-74
2023/10/15 12:39:15;;;;;;;2.60;2.40;;;15.10;90.20;;;;;;4939381;28;20431;-74
2023/10/15 12:41:41;;;;;;;2.10;1.77;;;15.10;90.10;;;;;;4921617;29;20499;-75
2023/10/15 12:44:11;;;;;;;1.60;1.50;;;15.10;90.10;;;;;;4921957;28;20484;-74
2023/10/15 12:46:37;;;;;;;2.60;1.50;;;15.10;90.10;;;;;;4922088;29;20468;-74
2023/10/15 12:49:05;;;;;;;1.87;1.57;;;15.10;90.10;;;;;;4932386;28;20428;-75
2023/10/15 12:51:34;;;;;;;2.00;1.40;;;15.10;90.00;;;;;;4926113;29;20856;-74
2023/10/15 12:54:05;;;;;;;1.53;1.43;;;15.10;90.00;;;;;;4941658;29;20444;-76
2023/10/15 12:56:31;;;;;;;2.13;2.03;;;15.10;89.90;;;;;;4919977;29;20466;-76
2023/10/15 12:58:57;;;;;;;1.70;1.60;;;15.10;89.80;;;;;;4923115;29;20906;-77
2023/10/15 13:01:26;;;;;;;1.30;1.20;;;15.20;89.90;;;;;;4925140;29;20547;-77
2023/10/15 13:03:52;;;;;;;3.30;1.90;;;15.20;89.80;;;;;;4942416;29;20480;-77
2023/10/15 13:06:19;;;;;;;1.70;1.60;;;15.20;89.70;;;;;;4921378;29;20533;-76
2023/10/15 13:08:46;;;;;;;1.70;1.60;;;15.20;89.70;;;;;;4918495;29;20298;-78
2023/10/15 13:11:17;;;;;;;1.50;1.40;;;15.20;89.70;;;;;;4907386;29;20429;-76
2023/10/15 13:13:46;;;;;;;2.70;1.60;;;15.20;89.80;;;;;;4941654;28;20427;-77
2023/10/15 13:16:12;;;;;;;5.37;1.70;;;15.20;89.70;;;;;;4934646;28;21061;-72
2023/10/15 13:18:40;;;;;;;3.77;1.77;;;15.20;89.60;;;;;;4909543;29;20455;-72
2023/10/15 13:21:08;;;;;;;1.70;1.47;;;15.20;89.60;;;;;;4909108;29;20428;-72
2023/10/15 13:23:36;;;;;;;1.30;1.20;;;15.20;89.50;;;;;;4909742;29;20475;-72
2023/10/15 13:26:05;;;;;;;3.17;1.53;;;15.20;89.40;;;;;;4934887;29;20444;-72
2023/10/15 13:28:33;;;;;;;1.83;1.27;;;15.20;89.40;;;;;;4917187;29;20455;-72
2023/10/15 13:30:59;;;;;;;1.50;1.40;;;15.20;89.30;;;;;;4941962;23;20900;-66
2023/10/15 13:33:26;;;;;;;4.57;1.50;;;15.20;89.30;;;;;;4961922;28;20886;-65
2023/10/15 13:35:55;;;;;;;1.80;1.50;;;15.20;89.30;;;;;;4944688;28;20438;-66